createdAt,value
2023-01-27T00:02:23.813Z,0.36
2023-01-27T00:07:23.719Z,0.42
2023-01-27T00:12:23.605Z,0.41
2023-01-27T00:17:23.589Z,0.38
2023-01-27T00:22:23.640Z,0.48
2023-01-27T00:27:23.447Z,0.34
2023-01-27T00:32:23.353Z,0.34
2023-01-27T00:37:23.338Z,0.45
2023-01-27T00:42:23.246Z,0.43
2023-01-27T00:47:23.193Z,0.52
2023-01-27T00:52:23.102Z,0.58
2023-01-27T00:57:23.024Z,0.85
2023-01-27T01:02:23.077Z,0.78
2023-01-27T01:07:22.954Z,0.76
2023-01-27T01:12:22.928Z,0.71
2023-01-27T01:17:22.853Z,0.72
2023-01-27T01:22:22.737Z,0.61
2023-01-27T01:27:22.779Z,0.61
2023-01-27T01:32:22.659Z,0.86
2023-01-27T01:37:22.584Z,0.70
2023-01-27T01:42:22.481Z,0.67
2023-01-27T01:47:22.396Z,0.68
2023-01-27T01:52:22.337Z,0.68
2023-01-27T01:57:23.302Z,0.86
2023-01-27T02:02:23.265Z,0.70
2023-01-27T02:07:22.116Z,0.58
2023-01-27T02:12:22.127Z,0.49
2023-01-27T02:17:22.013Z,0.48
2023-01-27T02:22:21.957Z,0.57
2023-01-27T02:27:21.917Z,0.52
2023-01-27T02:32:21.823Z,0.65
2023-01-27T02:37:21.774Z,0.75
2023-01-27T02:42:21.690Z,1.12
2023-01-27T02:47:21.685Z,0.75
2023-01-27T02:52:21.574Z,0.85
2023-01-27T02:57:21.491Z,0.71
2023-01-27T03:02:21.462Z,0.76
2023-01-27T03:07:21.497Z,0.51
2023-01-27T03:12:21.302Z,0.46
2023-01-27T03:17:21.231Z,0.65
2023-01-27T03:22:21.120Z,0.89
2023-01-27T03:27:21.070Z,1.15
2023-01-27T03:32:21.031Z,1.12
2023-01-27T03:37:20.943Z,1.01
2023-01-27T03:42:20.903Z,1.00
2023-01-27T03:47:20.809Z,0.90
2023-01-27T03:52:20.745Z,0.82
2023-01-27T03:57:20.666Z,0.65
2023-01-27T04:02:20.638Z,0.67
2023-01-27T04:07:20.562Z,0.52
2023-01-27T04:12:20.480Z,0.67
2023-01-27T04:17:20.426Z,0.52
2023-01-27T04:22:20.421Z,0.43
2023-01-27T04:27:20.311Z,0.46
2023-01-27T04:32:20.211Z,0.76
2023-01-27T04:37:20.146Z,0.68
2023-01-27T04:42:20.118Z,0.72
2023-01-27T04:47:20.027Z,0.67
2023-01-27T04:52:19.972Z,0.64
2023-01-27T04:57:19.901Z,0.65
2023-01-27T05:02:19.840Z,0.80
2023-01-27T05:07:19.791Z,0.92
2023-01-27T05:12:19.707Z,1.12
2023-01-27T05:17:19.713Z,1.34
2023-01-27T05:22:19.588Z,1.28
2023-01-27T05:27:19.529Z,1.10
2023-01-27T05:32:19.480Z,0.88
2023-01-27T05:37:19.375Z,0.85
2023-01-27T05:42:19.381Z,0.67
2023-01-27T05:47:19.242Z,1.06
2023-01-27T05:52:19.189Z,0.82
2023-01-27T05:57:19.112Z,0.88
2023-01-27T06:02:19.574Z,0.71
2023-01-27T06:07:18.958Z,0.75
2023-01-27T06:12:18.919Z,0.92
2023-01-27T06:17:18.844Z,0.71
2023-01-27T06:22:18.806Z,0.83
2023-01-27T06:27:19.002Z,0.78
2023-01-27T06:32:18.635Z,0.83
2023-01-27T06:37:18.613Z,0.72
2023-01-27T06:42:18.562Z,0.68
2023-01-27T06:47:18.470Z,0.61
2023-01-27T06:52:18.374Z,0.61
2023-01-27T06:57:18.347Z,0.65
2023-01-27T07:02:18.318Z,0.79
2023-01-27T07:07:18.204Z,0.70
2023-01-27T07:12:18.146Z,0.78
2023-01-27T07:17:18.080Z,1.03
2023-01-27T07:22:18.034Z,0.94
2023-01-27T07:27:17.966Z,0.85
2023-01-27T07:32:17.870Z,0.83
2023-01-27T07:37:17.801Z,0.80
2023-01-27T07:42:17.720Z,1.00
2023-01-27T07:47:17.705Z,0.90
2023-01-27T07:52:17.613Z,0.62
2023-01-27T07:57:17.539Z,0.68
2023-01-27T08:02:17.546Z,0.75
2023-01-27T08:07:17.414Z,0.72
2023-01-27T08:12:17.339Z,0.86
2023-01-27T08:17:17.281Z,0.97
2023-01-27T08:22:17.202Z,0.98
2023-01-27T08:27:17.141Z,1.00
2023-01-27T08:32:17.073Z,0.75
2023-01-27T08:37:17.001Z,0.78
2023-01-27T08:42:16.978Z,0.86
2023-01-27T08:47:16.901Z,0.86
2023-01-27T08:52:16.811Z,0.83
2023-01-27T08:57:16.788Z,0.72
2023-01-27T09:02:16.691Z,0.90
2023-01-27T09:07:16.647Z,0.86
2023-01-27T09:12:16.556Z,0.94
2023-01-27T09:17:16.524Z,0.88
2023-01-27T09:22:16.450Z,0.86
2023-01-27T09:27:16.432Z,0.96
2023-01-27T09:32:16.298Z,1.03
2023-01-27T09:37:16.238Z,0.98
2023-01-27T09:42:16.199Z,0.98
2023-01-27T09:47:16.137Z,1.12
2023-01-27T09:52:16.038Z,1.00
2023-01-27T09:57:15.982Z,1.10
2023-01-27T10:02:15.941Z,1.04
2023-01-27T10:07:15.842Z,1.16
2023-01-27T10:12:15.782Z,1.44
2023-01-27T10:17:15.784Z,1.58
2023-01-27T10:22:15.717Z,1.43
2023-01-27T10:27:15.610Z,1.26
2023-01-27T10:32:15.531Z,1.46
2023-01-27T10:37:15.485Z,1.37
2023-01-27T10:42:15.436Z,1.26
2023-01-27T10:47:15.333Z,1.16
2023-01-27T10:52:15.339Z,1.01
2023-01-27T10:57:15.239Z,1.04
2023-01-27T11:02:15.186Z,1.33
2023-01-27T11:07:15.078Z,1.52
2023-01-27T11:12:15.021Z,1.68
2023-01-27T11:17:14.996Z,1.26
2023-01-27T11:22:14.927Z,1.33
2023-01-27T11:27:14.858Z,1.80
2023-01-27T11:32:14.850Z,1.72
2023-01-27T11:37:14.716Z,1.76
2023-01-27T11:42:14.666Z,1.83
2023-01-27T11:47:14.548Z,2.08
2023-01-27T11:52:14.559Z,1.58
2023-01-27T11:57:14.463Z,1.65
2023-01-27T12:02:14.379Z,1.71
2023-01-27T12:07:14.332Z,1.50
2023-01-27T12:12:14.280Z,1.36
2023-01-27T12:17:14.484Z,1.99
2023-01-27T12:22:14.106Z,2.22
2023-01-27T12:27:14.053Z,2.15
2023-01-27T12:32:14.001Z,2.19
2023-01-27T12:37:13.897Z,2.19
2023-01-27T12:42:17.827Z,2.53
2023-01-27T12:47:13.777Z,2.12
2023-01-27T12:52:13.686Z,2.04
2023-01-27T12:57:13.683Z,1.85
2023-01-27T13:02:13.678Z,1.87
2023-01-27T13:07:13.512Z,1.72
2023-01-27T13:12:13.495Z,2.04
2023-01-27T13:17:13.423Z,1.82
2023-01-27T13:22:13.308Z,1.73
2023-01-27T13:27:13.251Z,1.80
2023-01-27T13:32:13.289Z,1.87
2023-01-27T13:37:13.108Z,2.01
2023-01-27T13:42:13.057Z,2.01
2023-01-27T13:47:13.027Z,2.15
2023-01-27T13:52:12.999Z,2.13
2023-01-27T13:57:12.856Z,2.06
2023-01-27T14:02:12.786Z,2.08
2023-01-27T14:07:12.698Z,2.19
2023-01-27T14:12:12.654Z,2.34
2023-01-27T14:17:12.577Z,2.55
2023-01-27T14:22:12.542Z,2.45
2023-01-27T14:27:12.444Z,2.38
2023-01-27T14:32:12.368Z,2.23
2023-01-27T14:37:12.337Z,2.44
2023-01-27T14:42:12.265Z,2.61
2023-01-27T14:47:12.315Z,2.55
2023-01-27T14:52:12.155Z,2.70
2023-01-27T14:57:12.169Z,2.67
2023-01-27T15:02:12.036Z,2.52
2023-01-27T15:07:11.932Z,2.44
2023-01-27T15:12:11.898Z,2.13
2023-01-27T15:17:11.791Z,2.40
2023-01-27T15:22:11.731Z,2.76
2023-01-27T15:27:11.684Z,2.63
2023-01-27T15:32:11.680Z,2.71
2023-01-27T15:37:11.548Z,2.91
2023-01-27T15:42:11.485Z,2.85
2023-01-27T15:47:11.429Z,2.67
2023-01-27T15:52:11.339Z,2.70
2023-01-27T15:57:11.274Z,2.71
2023-01-27T16:02:11.272Z,2.73
2023-01-27T16:07:11.176Z,2.59
2023-01-27T16:12:11.107Z,2.48
2023-01-27T16:17:11.049Z,2.44
2023-01-27T16:22:10.960Z,2.12
2023-01-27T16:27:10.867Z,1.97
2023-01-27T16:32:10.936Z,2.20
2023-01-27T16:37:11.021Z,2.02
2023-01-27T16:42:10.681Z,2.01
2023-01-27T16:47:16.541Z,1.94
2023-01-27T16:52:11.585Z,2.12
2023-01-27T16:57:10.562Z,2.70
2023-01-27T17:02:10.455Z,2.69
2023-01-27T17:07:12.067Z,2.51
2023-01-27T17:12:10.330Z,2.31
2023-01-27T17:17:10.264Z,2.23
2023-01-27T17:22:10.176Z,2.15
2023-01-27T17:27:10.132Z,2.13
2023-01-27T17:32:10.208Z,2.06
2023-01-27T17:37:09.982Z,1.97
2023-01-27T17:42:09.953Z,1.97
2023-01-27T17:47:09.883Z,1.87
2023-01-27T17:52:09.765Z,1.85
2023-01-27T17:57:09.769Z,1.82
2023-01-27T18:02:09.652Z,1.78
2023-01-27T18:07:09.659Z,1.79
2023-01-27T18:12:09.548Z,1.85
2023-01-27T18:17:09.639Z,1.87
2023-01-27T18:22:10.330Z,1.91
2023-01-27T18:27:09.596Z,1.89
2023-01-27T18:32:09.288Z,1.91
2023-01-27T18:37:09.209Z,1.87
2023-01-27T18:42:09.121Z,1.87
2023-01-27T18:47:09.025Z,1.99
2023-01-27T18:52:08.988Z,2.08
2023-01-27T18:57:08.932Z,1.89
2023-01-27T19:02:08.899Z,1.91
2023-01-27T19:07:08.907Z,1.90
2023-01-27T19:12:08.849Z,1.91
2023-01-27T19:17:08.681Z,2.02
2023-01-27T19:22:08.614Z,1.99
2023-01-27T19:27:08.821Z,1.99
2023-01-27T19:32:08.499Z,1.93
2023-01-27T19:37:08.713Z,1.97
2023-01-27T19:42:09.096Z,2.06
2023-01-27T19:47:10.537Z,2.04
2023-01-27T19:52:08.231Z,1.93
2023-01-27T19:57:08.446Z,2.01
2023-01-27T20:02:09.246Z,2.04
2023-01-27T20:07:08.650Z,1.94
2023-01-27T20:12:09.831Z,1.91
2023-01-27T20:17:08.096Z,1.98
2023-01-27T20:22:07.838Z,2.08
2023-01-27T20:27:07.974Z,1.97
2023-01-27T20:32:07.727Z,1.93
2023-01-27T20:37:07.731Z,1.99
2023-01-27T20:42:07.561Z,2.06
2023-01-27T20:47:07.643Z,2.08
2023-01-27T20:52:07.443Z,2.08
2023-01-27T20:57:07.374Z,2.16
2023-01-27T21:02:07.362Z,2.08
2023-01-27T21:07:07.211Z,2.08
2023-01-27T21:12:07.190Z,2.15
2023-01-27T21:17:07.094Z,2.08
2023-01-27T21:22:07.024Z,2.08
2023-01-27T21:27:06.949Z,2.10
2023-01-27T21:32:06.929Z,2.04
2023-01-27T21:37:08.199Z,2.17
2023-01-27T21:42:06.780Z,2.19
2023-01-27T21:47:06.719Z,2.26
2023-01-27T21:52:06.928Z,2.34
2023-01-27T21:57:06.611Z,2.23
2023-01-27T22:02:06.497Z,2.17
2023-01-27T22:07:06.464Z,2.13
2023-01-27T22:12:06.424Z,2.13
2023-01-27T22:17:06.368Z,2.04
2023-01-27T22:22:06.322Z,2.10
2023-01-27T22:27:06.248Z,2.19
2023-01-27T22:32:06.278Z,2.28
2023-01-27T22:37:06.183Z,2.20
2023-01-27T22:42:06.012Z,2.31
2023-01-27T22:47:05.974Z,2.33
2023-01-27T22:52:05.935Z,2.34
2023-01-27T22:57:05.886Z,2.19
2023-01-27T23:02:06.187Z,2.19
2023-01-27T23:07:05.773Z,2.23
2023-01-27T23:12:05.628Z,2.16
2023-01-27T23:17:05.572Z,2.16
2023-01-27T23:22:05.476Z,2.12
2023-01-27T23:27:05.408Z,2.20
2023-01-27T23:32:05.355Z,2.30
2023-01-27T23:37:05.260Z,2.28
2023-01-27T23:42:05.217Z,2.12
2023-01-27T23:47:05.170Z,1.94
2023-01-27T23:52:05.094Z,1.98
2023-01-27T23:57:05.064Z,1.79
